sensor_id;sensor_type;location;lat;lon;timestamp;P1;durP1;ratioP1;P2;durP2;ratioP2
13343;SDS011;6741;48.964;9.406;2023-03-31T00:01:58;3.43;;;1.80;;
13343;SDS011;6741;48.964;9.406;2023-03-31T00:04:25;2.80;;;1.73;;
13343;SDS011;6741;48.964;9.406;2023-03-31T00:06:56;4.27;;;2.10;;
13343;SDS011;6741;48.964;9.406;2023-03-31T00:09:23;4.30;;;2.77;;
13343;SDS011;6741;48.964;9.406;2023-03-31T00:11:50;3.53;;;2.17;;
13343;SDS011;6741;48.964;9.406;2023-03-31T00:14:19;4.80;;;2.40;;
13343;SDS011;6741;48.964;9.406;2023-03-31T00:16:46;6.67;;;2.30;;
13343;SDS011;6741;48.964;9.406;2023-03-31T00:19:13;6.00;;;2.23;;
13343;SDS011;6741;48.964;9.406;2023-03-31T00:21:44;2.90;;;2.10;;
13343;SDS011;6741;48.964;9.406;2023-03-31T00:24:11;4.47;;;2.27;;
13343;SDS011;6741;48.964;9.406;2023-03-31T00:26:40;3.43;;;2.20;;
13343;SDS011;6741;48.964;9.406;2023-03-31T00:29:07;4.03;;;2.10;;
13343;SDS011;6741;48.964;9.406;2023-03-31T00:31:37;5.03;;;2.00;;
13343;SDS011;6741;48.964;9.406;2023-03-31T00:34:05;6.10;;;2.70;;
13343;SDS011;6741;48.964;9.406;2023-03-31T00:36:32;4.60;;;2.50;;
13343;SDS011;6741;48.964;9.406;2023-03-31T00:39:01;2.83;;;2.03;;
13343;SDS011;6741;48.964;9.406;2023-03-31T00:41:32;4.20;;;2.20;;
13343;SDS011;6741;48.964;9.406;2023-03-31T00:44:01;4.00;;;2.07;;
13343;SDS011;6741;48.964;9.406;2023-03-31T00:46:39;4.33;;;2.13;;
13343;SDS011;6741;48.964;9.406;2023-03-31T00:49:11;5.77;;;2.43;;
13343;SDS011;6741;48.964;9.406;2023-03-31T00:51:45;5.03;;;2.77;;
13343;SDS011;6741;48.964;9.406;2023-03-31T00:54:14;4.87;;;2.53;;
13343;SDS011;6741;48.964;9.406;2023-03-31T00:56:44;2.77;;;2.33;;
13343;SDS011;6741;48.964;9.406;2023-03-31T00:59:13;6.57;;;2.50;;
13343;SDS011;6741;48.964;9.406;2023-03-31T01:01:45;6.67;;;3.33;;
13343;SDS011;6741;48.964;9.406;2023-03-31T01:04:14;4.17;;;2.90;;
13343;SDS011;6741;48.964;9.406;2023-03-31T01:06:54;9.80;;;4.20;;
13343;SDS011;6741;48.964;9.406;2023-03-31T01:09:24;6.77;;;3.90;;
13343;SDS011;6741;48.964;9.406;2023-03-31T01:11:59;5.57;;;4.10;;
13343;SDS011;6741;48.964;9.406;2023-03-31T01:14:27;7.00;;;4.03;;
13343;SDS011;6741;48.964;9.406;2023-03-31T01:16:56;5.87;;;3.30;;
13343;SDS011;6741;48.964;9.406;2023-03-31T01:19:25;5.80;;;3.23;;
13343;SDS011;6741;48.964;9.406;2023-03-31T01:28:17;5.40;;;3.80;;
13343;SDS011;6741;48.964;9.406;2023-03-31T01:34:00;8.83;;;3.43;;
13343;SDS011;6741;48.964;9.406;2023-03-31T01:36:49;5.37;;;3.43;;
13343;SDS011;6741;48.964;9.406;2023-03-31T01:42:32;5.43;;;3.43;;
13343;SDS011;6741;48.964;9.406;2023-03-31T01:45:05;3.97;;;2.70;;
13343;SDS011;6741;48.964;9.406;2023-03-31T01:47:43;6.07;;;3.13;;
13343;SDS011;6741;48.964;9.406;2023-03-31T01:50:16;5.87;;;3.47;;
13343;SDS011;6741;48.964;9.406;2023-03-31T01:52:48;6.20;;;3.20;;
13343;SDS011;6741;48.964;9.406;2023-03-31T01:55:23;7.77;;;3.90;;
13343;SDS011;6741;48.964;9.406;2023-03-31T01:57:54;4.83;;;3.17;;
13343;SDS011;6741;48.964;9.406;2023-03-31T02:00:25;4.67;;;2.67;;
13343;SDS011;6741;48.964;9.406;2023-03-31T02:02:58;5.67;;;3.03;;
13343;SDS011;6741;48.964;9.406;2023-03-31T02:05:31;8.30;;;3.17;;
13343;SDS011;6741;48.964;9.406;2023-03-31T02:08:08;7.33;;;3.17;;
13343;SDS011;6741;48.964;9.406;2023-03-31T02:10:41;5.30;;;2.90;;
13343;SDS011;6741;48.964;9.406;2023-03-31T02:13:10;6.90;;;3.03;;
13343;SDS011;6741;48.964;9.406;2023-03-31T02:15:40;6.57;;;2.67;;
13343;SDS011;6741;48.964;9.406;2023-03-31T02:18:11;5.80;;;3.17;;
13343;SDS011;6741;48.964;9.406;2023-03-31T02:20:43;5.93;;;2.50;;
13343;SDS011;6741;48.964;9.406;2023-03-31T02:23:13;4.90;;;2.97;;
13343;SDS011;6741;48.964;9.406;2023-03-31T02:25:44;3.07;;;2.70;;
13343;SDS011;6741;48.964;9.406;2023-03-31T02:28:17;5.60;;;2.80;;
13343;SDS011;6741;48.964;9.406;2023-03-31T02:30:50;4.50;;;2.87;;
13343;SDS011;6741;48.964;9.406;2023-03-31T02:33:24;4.27;;;2.60;;
13343;SDS011;6741;48.964;9.406;2023-03-31T02:35:51;7.47;;;2.30;;
13343;SDS011;6741;48.964;9.406;2023-03-31T02:38:18;5.00;;;1.97;;
13343;SDS011;6741;48.964;9.406;2023-03-31T02:40:47;4.30;;;1.80;;
13343;SDS011;6741;48.964;9.406;2023-03-31T02:43:14;3.50;;;1.80;;
13343;SDS011;6741;48.964;9.406;2023-03-31T02:45:42;3.20;;;1.77;;
13343;SDS011;6741;48.964;9.406;2023-03-31T02:48:12;3.93;;;1.60;;
13343;SDS011;6741;48.964;9.406;2023-03-31T02:51:00;2.97;;;1.33;;
13343;SDS011;6741;48.964;9.406;2023-03-31T02:54:05;2.37;;;1.70;;
13343;SDS011;6741;48.964;9.406;2023-03-31T02:56:50;2.63;;;1.47;;
13343;SDS011;6741;48.964;9.406;2023-03-31T02:59:42;2.33;;;1.37;;
13343;SDS011;6741;48.964;9.406;2023-03-31T03:02:21;4.80;;;1.70;;
13343;SDS011;6741;48.964;9.406;2023-03-31T03:05:00;1.53;;;1.07;;
13343;SDS011;6741;48.964;9.406;2023-03-31T03:07:45;2.00;;;1.03;;
13343;SDS011;6741;48.964;9.406;2023-03-31T03:10:19;3.20;;;1.50;;
13343;SDS011;6741;48.964;9.406;2023-03-31T03:12:56;2.17;;;1.43;;
13343;SDS011;6741;48.964;9.406;2023-03-31T03:15:32;3.23;;;1.40;;
13343;SDS011;6741;48.964;9.406;2023-03-31T03:18:01;4.33;;;1.53;;
13343;SDS011;6741;48.964;9.406;2023-03-31T03:20:30;3.33;;;1.57;;
13343;SDS011;6741;48.964;9.406;2023-03-31T03:22:58;4.83;;;2.07;;
13343;SDS011;6741;48.964;9.406;2023-03-31T03:25:25;4.20;;;1.83;;
13343;SDS011;6741;48.964;9.406;2023-03-31T03:27:55;12.53;;;2.00;;
13343;SDS011;6741;48.964;9.406;2023-03-31T03:30:22;2.53;;;1.60;;
13343;SDS011;6741;48.964;9.406;2023-03-31T03:32:49;4.60;;;2.30;;
13343;SDS011;6741;48.964;9.406;2023-03-31T03:35:18;3.37;;;1.73;;
13343;SDS011;6741;48.964;9.406;2023-03-31T03:37:45;5.13;;;1.77;;
13343;SDS011;6741;48.964;9.406;2023-03-31T03:40:12;5.17;;;2.00;;
13343;SDS011;6741;48.964;9.406;2023-03-31T03:42:39;2.73;;;1.90;;
13343;SDS011;6741;48.964;9.406;2023-03-31T03:45:08;3.90;;;1.77;;
13343;SDS011;6741;48.964;9.406;2023-03-31T03:47:35;4.70;;;1.70;;
13343;SDS011;6741;48.964;9.406;2023-03-31T03:50:02;7.90;;;2.30;;
13343;SDS011;6741;48.964;9.406;2023-03-31T03:52:30;5.90;;;1.87;;
13343;SDS011;6741;48.964;9.406;2023-03-31T03:54:57;5.03;;;2.40;;
13343;SDS011;6741;48.964;9.406;2023-03-31T03:57:25;6.93;;;2.70;;
13343;SDS011;6741;48.964;9.406;2023-03-31T03:59:52;4.73;;;2.20;;
13343;SDS011;6741;48.964;9.406;2023-03-31T04:02:21;5.03;;;2.10;;
13343;SDS011;6741;48.964;9.406;2023-03-31T04:04:48;8.07;;;2.50;;
13343;SDS011;6741;48.964;9.406;2023-03-31T04:07:15;7.43;;;2.97;;
13343;SDS011;6741;48.964;9.406;2023-03-31T04:09:42;3.43;;;2.50;;
13343;SDS011;6741;48.964;9.406;2023-03-31T04:12:09;3.07;;;2.13;;
13343;SDS011;6741;48.964;9.406;2023-03-31T04:14:36;3.07;;;2.00;;
13343;SDS011;6741;48.964;9.406;2023-03-31T04:17:03;5.47;;;1.90;;
13343;SDS011;6741;48.964;9.406;2023-03-31T04:19:31;3.37;;;2.70;;
13343;SDS011;6741;48.964;9.406;2023-03-31T04:21:58;6.30;;;2.43;;
13343;SDS011;6741;48.964;9.406;2023-03-31T04:24:26;4.10;;;2.20;;
13343;SDS011;6741;48.964;9.406;2023-03-31T04:26:57;3.70;;;2.03;;
13343;SDS011;6741;48.964;9.406;2023-03-31T04:29:25;5.80;;;2.77;;
13343;SDS011;6741;48.964;9.406;2023-03-31T04:31:52;3.73;;;2.20;;
13343;SDS011;6741;48.964;9.406;2023-03-31T04:34:23;5.00;;;2.47;;
13343;SDS011;6741;48.964;9.406;2023-03-31T04:37:00;5.37;;;3.40;;
13343;SDS011;6741;48.964;9.406;2023-03-31T04:39:28;3.30;;;2.40;;
13343;SDS011;6741;48.964;9.406;2023-03-31T04:41:56;5.43;;;2.80;;
13343;SDS011;6741;48.964;9.406;2023-03-31T04:44:23;4.47;;;3.03;;
13343;SDS011;6741;48.964;9.406;2023-03-31T04:46:50;7.00;;;3.93;;
13343;SDS011;6741;48.964;9.406;2023-03-31T04:49:17;6.90;;;4.30;;
13343;SDS011;6741;48.964;9.406;2023-03-31T04:51:44;7.07;;;3.73;;
13343;SDS011;6741;48.964;9.406;2023-03-31T04:54:14;6.70;;;3.67;;
13343;SDS011;6741;48.964;9.406;2023-03-31T04:56:41;6.70;;;3.40;;
13343;SDS011;6741;48.964;9.406;2023-03-31T04:59:09;5.23;;;2.93;;
13343;SDS011;6741;48.964;9.406;2023-03-31T05:01:36;5.43;;;3.60;;
13343;SDS011;6741;48.964;9.406;2023-03-31T05:04:03;4.23;;;2.87;;
13343;SDS011;6741;48.964;9.406;2023-03-31T05:06:31;4.10;;;2.73;;
13343;SDS011;6741;48.964;9.406;2023-03-31T05:08:59;5.07;;;3.07;;
13343;SDS011;6741;48.964;9.406;2023-03-31T05:11:27;3.67;;;2.60;;
13343;SDS011;6741;48.964;9.406;2023-03-31T05:13:54;3.03;;;2.77;;
13343;SDS011;6741;48.964;9.406;2023-03-31T05:16:21;3.83;;;2.70;;
13343;SDS011;6741;48.964;9.406;2023-03-31T05:18:48;4.13;;;2.90;;
13343;SDS011;6741;48.964;9.406;2023-03-31T05:21:16;6.53;;;3.17;;
13343;SDS011;6741;48.964;9.406;2023-03-31T05:23:44;7.57;;;4.03;;
13343;SDS011;6741;48.964;9.406;2023-03-31T05:26:12;5.53;;;3.77;;
13343;SDS011;6741;48.964;9.406;2023-03-31T05:28:40;7.13;;;3.70;;
13343;SDS011;6741;48.964;9.406;2023-03-31T05:31:08;4.20;;;3.77;;
13343;SDS011;6741;48.964;9.406;2023-03-31T05:33:36;9.80;;;4.63;;
13343;SDS011;6741;48.964;9.406;2023-03-31T05:36:06;5.63;;;4.30;;
13343;SDS011;6741;48.964;9.406;2023-03-31T05:38:34;5.93;;;4.20;;
13343;SDS011;6741;48.964;9.406;2023-03-31T05:41:01;7.07;;;3.70;;
13343;SDS011;6741;48.964;9.406;2023-03-31T05:43:28;5.90;;;4.70;;
13343;SDS011;6741;48.964;9.406;2023-03-31T05:45:56;8.63;;;4.10;;
13343;SDS011;6741;48.964;9.406;2023-03-31T05:48:23;7.73;;;4.43;;
13343;SDS011;6741;48.964;9.406;2023-03-31T05:50:50;12.10;;;5.23;;
13343;SDS011;6741;48.964;9.406;2023-03-31T05:53:17;7.53;;;5.17;;
13343;SDS011;6741;48.964;9.406;2023-03-31T05:55:44;7.10;;;4.80;;
13343;SDS011;6741;48.964;9.406;2023-03-31T05:58:11;11.27;;;5.00;;
13343;SDS011;6741;48.964;9.406;2023-03-31T06:00:38;7.80;;;4.97;;
13343;SDS011;6741;48.964;9.406;2023-03-31T06:03:06;6.50;;;5.30;;
13343;SDS011;6741;48.964;9.406;2023-03-31T06:05:33;9.17;;;5.87;;
13343;SDS011;6741;48.964;9.406;2023-03-31T06:08:00;8.50;;;4.97;;
13343;SDS011;6741;48.964;9.406;2023-03-31T06:10:27;6.90;;;4.43;;
13343;SDS011;6741;48.964;9.406;2023-03-31T06:12:54;7.50;;;4.37;;
13343;SDS011;6741;48.964;9.406;2023-03-31T06:15:21;6.30;;;4.13;;
13343;SDS011;6741;48.964;9.406;2023-03-31T06:17:48;6.27;;;3.97;;
13343;SDS011;6741;48.964;9.406;2023-03-31T06:20:17;9.27;;;4.80;;
13343;SDS011;6741;48.964;9.406;2023-03-31T06:22:44;5.37;;;3.97;;
13343;SDS011;6741;48.964;9.406;2023-03-31T06:25:11;6.73;;;4.50;;
13343;SDS011;6741;48.964;9.406;2023-03-31T06:27:38;9.67;;;4.83;;
13343;SDS011;6741;48.964;9.406;2023-03-31T06:30:05;8.57;;;5.50;;
13343;SDS011;6741;48.964;9.406;2023-03-31T06:32:33;8.83;;;5.40;;
13343;SDS011;6741;48.964;9.406;2023-03-31T06:35:00;10.30;;;5.03;;
13343;SDS011;6741;48.964;9.406;2023-03-31T06:37:28;7.03;;;5.10;;
13343;SDS011;6741;48.964;9.406;2023-03-31T06:39:55;9.10;;;5.23;;
13343;SDS011;6741;48.964;9.406;2023-03-31T06:42:22;8.10;;;4.70;;
13343;SDS011;6741;48.964;9.406;2023-03-31T06:44:49;7.13;;;4.80;;
13343;SDS011;6741;48.964;9.406;2023-03-31T06:47:16;6.10;;;4.80;;
13343;SDS011;6741;48.964;9.406;2023-03-31T06:49:43;7.27;;;5.00;;
13343;SDS011;6741;48.964;9.406;2023-03-31T06:52:10;11.63;;;5.10;;
13343;SDS011;6741;48.964;9.406;2023-03-31T06:54:38;8.57;;;4.60;;
13343;SDS011;6741;48.964;9.406;2023-03-31T06:57:06;6.37;;;5.10;;
13343;SDS011;6741;48.964;9.406;2023-03-31T06:59:33;7.77;;;5.63;;
13343;SDS011;6741;48.964;9.406;2023-03-31T07:02:00;9.30;;;5.47;;
13343;SDS011;6741;48.964;9.406;2023-03-31T07:04:27;9.13;;;6.00;;
13343;SDS011;6741;48.964;9.406;2023-03-31T07:06:54;9.87;;;6.83;;
13343;SDS011;6741;48.964;9.406;2023-03-31T07:09:20;9.53;;;6.40;;
13343;SDS011;6741;48.964;9.406;2023-03-31T07:11:49;9.53;;;7.00;;
13343;SDS011;6741;48.964;9.406;2023-03-31T07:14:16;9.03;;;6.40;;
13343;SDS011;6741;48.964;9.406;2023-03-31T07:16:43;13.63;;;7.70;;
13343;SDS011;6741;48.964;9.406;2023-03-31T07:19:10;11.43;;;7.43;;
13343;SDS011;6741;48.964;9.406;2023-03-31T07:21:37;11.30;;;7.77;;
13343;SDS011;6741;48.964;9.406;2023-03-31T07:24:04;13.77;;;7.93;;
13343;SDS011;6741;48.964;9.406;2023-03-31T07:26:31;15.60;;;8.20;;
13343;SDS011;6741;48.964;9.406;2023-03-31T07:29:00;13.00;;;8.57;;
13343;SDS011;6741;48.964;9.406;2023-03-31T07:31:27;11.80;;;8.37;;
13343;SDS011;6741;48.964;9.406;2023-03-31T07:33:54;11.13;;;7.73;;
13343;SDS011;6741;48.964;9.406;2023-03-31T07:36:21;11.73;;;7.13;;
13343;SDS011;6741;48.964;9.406;2023-03-31T07:38:48;10.20;;;7.37;;
13343;SDS011;6741;48.964;9.406;2023-03-31T07:41:16;10.00;;;6.93;;
13343;SDS011;6741;48.964;9.406;2023-03-31T07:43:44;8.83;;;5.90;;
13343;SDS011;6741;48.964;9.406;2023-03-31T07:46:14;8.63;;;6.20;;
13343;SDS011;6741;48.964;9.406;2023-03-31T07:48:42;8.17;;;5.97;;
13343;SDS011;6741;48.964;9.406;2023-03-31T07:51:11;9.03;;;5.57;;
13343;SDS011;6741;48.964;9.406;2023-03-31T07:53:38;9.40;;;5.13;;
13343;SDS011;6741;48.964;9.406;2023-03-31T07:56:08;7.67;;;5.43;;
13343;SDS011;6741;48.964;9.406;2023-03-31T07:58:36;8.07;;;5.10;;
13343;SDS011;6741;48.964;9.406;2023-03-31T08:01:03;7.37;;;4.43;;
13343;SDS011;6741;48.964;9.406;2023-03-31T08:03:31;4.77;;;3.73;;
13343;SDS011;6741;48.964;9.406;2023-03-31T08:05:59;5.33;;;3.70;;
13343;SDS011;6741;48.964;9.406;2023-03-31T08:08:26;5.47;;;3.63;;
13343;SDS011;6741;48.964;9.406;2023-03-31T08:10:53;3.27;;;2.80;;
13343;SDS011;6741;48.964;9.406;2023-03-31T08:13:19;5.73;;;2.83;;
13343;SDS011;6741;48.964;9.406;2023-03-31T08:15:47;4.17;;;2.60;;
13343;SDS011;6741;48.964;9.406;2023-03-31T08:18:14;3.43;;;2.57;;
13343;SDS011;6741;48.964;9.406;2023-03-31T08:20:42;4.63;;;2.90;;
13343;SDS011;6741;48.964;9.406;2023-03-31T08:23:09;2.83;;;2.07;;
13343;SDS011;6741;48.964;9.406;2023-03-31T08:25:36;3.17;;;2.13;;
13343;SDS011;6741;48.964;9.406;2023-03-31T08:28:07;3.57;;;2.33;;
13343;SDS011;6741;48.964;9.406;2023-03-31T08:30:35;2.63;;;2.13;;
13343;SDS011;6741;48.964;9.406;2023-03-31T08:33:03;1.80;;;1.70;;
13343;SDS011;6741;48.964;9.406;2023-03-31T08:35:30;1.67;;;1.57;;
13343;SDS011;6741;48.964;9.406;2023-03-31T08:37:58;2.47;;;1.63;;
13343;SDS011;6741;48.964;9.406;2023-03-31T08:40:26;1.50;;;1.37;;
13343;SDS011;6741;48.964;9.406;2023-03-31T08:42:55;2.87;;;1.77;;
13343;SDS011;6741;48.964;9.406;2023-03-31T08:45:35;3.70;;;1.70;;
13343;SDS011;6741;48.964;9.406;2023-03-31T08:48:05;2.67;;;1.43;;
13343;SDS011;6741;48.964;9.406;2023-03-31T08:50:38;3.10;;;1.33;;
13343;SDS011;6741;48.964;9.406;2023-03-31T08:53:15;3.53;;;1.40;;
13343;SDS011;6741;48.964;9.406;2023-03-31T08:55:48;1.73;;;1.50;;
13343;SDS011;6741;48.964;9.406;2023-03-31T08:58:23;1.33;;;1.20;;
13343;SDS011;6741;48.964;9.406;2023-03-31T09:00:59;3.83;;;1.43;;
13343;SDS011;6741;48.964;9.406;2023-03-31T09:03:33;2.20;;;1.30;;
13343;SDS011;6741;48.964;9.406;2023-03-31T09:06:08;2.33;;;1.20;;
13343;SDS011;6741;48.964;9.406;2023-03-31T09:08:43;3.33;;;1.20;;
13343;SDS011;6741;48.964;9.406;2023-03-31T09:11:12;6.17;;;1.37;;
13343;SDS011;6741;48.964;9.406;2023-03-31T09:16:26;2.23;;;0.97;;
13343;SDS011;6741;48.964;9.406;2023-03-31T09:18:59;4.10;;;1.60;;
13343;SDS011;6741;48.964;9.406;2023-03-31T09:21:28;5.47;;;1.53;;
13343;SDS011;6741;48.964;9.406;2023-03-31T09:24:00;3.13;;;1.40;;
13343;SDS011;6741;48.964;9.406;2023-03-31T09:26:33;3.10;;;1.33;;
13343;SDS011;6741;48.964;9.406;2023-03-31T09:29:05;3.53;;;1.23;;
13343;SDS011;6741;48.964;9.406;2023-03-31T09:31:37;3.20;;;1.50;;
13343;SDS011;6741;48.964;9.406;2023-03-31T09:34:11;5.03;;;1.33;;
13343;SDS011;6741;48.964;9.406;2023-03-31T09:36:41;3.10;;;1.48;;
13343;SDS011;6741;48.964;9.406;2023-03-31T09:39:12;2.47;;;1.15;;
13343;SDS011;6741;48.964;9.406;2023-03-31T09:41:41;3.65;;;1.70;;
13343;SDS011;6741;48.964;9.406;2023-03-31T09:44:13;2.63;;;1.40;;
13343;SDS011;6741;48.964;9.406;2023-03-31T09:46:48;3.22;;;1.58;;
13343;SDS011;6741;48.964;9.406;2023-03-31T09:49:16;4.00;;;1.52;;
13343;SDS011;6741;48.964;9.406;2023-03-31T09:51:47;5.13;;;1.60;;
13343;SDS011;6741;48.964;9.406;2023-03-31T09:54:21;4.27;;;1.50;;
13343;SDS011;6741;48.964;9.406;2023-03-31T09:56:53;3.93;;;1.63;;
13343;SDS011;6741;48.964;9.406;2023-03-31T09:59:21;3.00;;;1.20;;
13343;SDS011;6741;48.964;9.406;2023-03-31T10:01:55;4.40;;;1.77;;
13343;SDS011;6741;48.964;9.406;2023-03-31T10:04:24;3.00;;;1.40;;
13343;SDS011;6741;48.964;9.406;2023-03-31T10:06:53;3.78;;;1.30;;
13343;SDS011;6741;48.964;9.406;2023-03-31T10:09:25;4.38;;;1.45;;
13343;SDS011;6741;48.964;9.406;2023-03-31T10:11:56;3.92;;;1.25;;
13343;SDS011;6741;48.964;9.406;2023-03-31T10:14:26;3.88;;;1.75;;
13343;SDS011;6741;48.964;9.406;2023-03-31T10:16:58;2.43;;;1.53;;
13343;SDS011;6741;48.964;9.406;2023-03-31T10:19:30;6.30;;;1.67;;
13343;SDS011;6741;48.964;9.406;2023-03-31T10:21:59;4.53;;;1.23;;
13343;SDS011;6741;48.964;9.406;2023-03-31T10:24:34;5.50;;;1.63;;
13343;SDS011;6741;48.964;9.406;2023-03-31T10:27:06;4.77;;;1.90;;
13343;SDS011;6741;48.964;9.406;2023-03-31T10:29:44;5.37;;;1.93;;
13343;SDS011;6741;48.964;9.406;2023-03-31T10:32:13;6.20;;;1.70;;
13343;SDS011;6741;48.964;9.406;2023-03-31T10:34:47;4.40;;;1.70;;
13343;SDS011;6741;48.964;9.406;2023-03-31T10:37:15;3.20;;;1.60;;
13343;SDS011;6741;48.964;9.406;2023-03-31T10:39:46;5.43;;;1.67;;
13343;SDS011;6741;48.964;9.406;2023-03-31T10:42:18;4.53;;;1.47;;
13343;SDS011;6741;48.964;9.406;2023-03-31T10:44:47;6.73;;;1.57;;
13343;SDS011;6741;48.964;9.406;2023-03-31T10:47:18;7.03;;;1.73;;
13343;SDS011;6741;48.964;9.406;2023-03-31T10:49:48;5.93;;;1.90;;
13343;SDS011;6741;48.964;9.406;2023-03-31T10:52:21;2.73;;;1.33;;
13343;SDS011;6741;48.964;9.406;2023-03-31T10:54:52;4.00;;;1.93;;
13343;SDS011;6741;48.964;9.406;2023-03-31T10:57:23;5.73;;;1.70;;
13343;SDS011;6741;48.964;9.406;2023-03-31T11:00:12;7.10;;;1.87;;
13343;SDS011;6741;48.964;9.406;2023-03-31T11:05:44;5.27;;;1.60;;
13343;SDS011;6741;48.964;9.406;2023-03-31T11:08:19;1.97;;;1.10;;
13343;SDS011;6741;48.964;9.406;2023-03-31T11:11:02;3.67;;;1.40;;
13343;SDS011;6741;48.964;9.406;2023-03-31T11:13:37;3.50;;;1.57;;
13343;SDS011;6741;48.964;9.406;2023-03-31T11:16:15;4.77;;;1.37;;
13343;SDS011;6741;48.964;9.406;2023-03-31T11:18:54;3.10;;;1.23;;
13343;SDS011;6741;48.964;9.406;2023-03-31T11:21:31;4.37;;;1.63;;
13343;SDS011;6741;48.964;9.406;2023-03-31T11:24:08;3.87;;;1.40;;
13343;SDS011;6741;48.964;9.406;2023-03-31T11:26:52;4.50;;;1.40;;
13343;SDS011;6741;48.964;9.406;2023-03-31T11:29:31;3.27;;;1.60;;
13343;SDS011;6741;48.964;9.406;2023-03-31T11:35:08;4.37;;;1.47;;
13343;SDS011;6741;48.964;9.406;2023-03-31T11:37:55;3.63;;;0.90;;
13343;SDS011;6741;48.964;9.406;2023-03-31T11:40:40;1.47;;;0.73;;
13343;SDS011;6741;48.964;9.406;2023-03-31T11:43:19;3.57;;;1.00;;
13343;SDS011;6741;48.964;9.406;2023-03-31T11:45:54;1.57;;;0.87;;
13343;SDS011;6741;48.964;9.406;2023-03-31T11:48:30;2.70;;;0.90;;
13343;SDS011;6741;48.964;9.406;2023-03-31T11:51:03;4.87;;;0.90;;
13343;SDS011;6741;48.964;9.406;2023-03-31T11:53:37;2.67;;;0.70;;
13343;SDS011;6741;48.964;9.406;2023-03-31T11:56:06;1.90;;;0.80;;
13343;SDS011;6741;48.964;9.406;2023-03-31T11:58:36;1.07;;;0.50;;
13343;SDS011;6741;48.964;9.406;2023-03-31T12:01:08;3.93;;;0.90;;
13343;SDS011;6741;48.964;9.406;2023-03-31T12:03:44;1.33;;;0.60;;
13343;SDS011;6741;48.964;9.406;2023-03-31T12:06:18;2.27;;;0.90;;
13343;SDS011;6741;48.964;9.406;2023-03-31T12:08:49;1.97;;;0.57;;
13343;SDS011;6741;48.964;9.406;2023-03-31T12:11:28;1.23;;;0.80;;
13343;SDS011;6741;48.964;9.406;2023-03-31T12:14:03;0.80;;;0.40;;
13343;SDS011;6741;48.964;9.406;2023-03-31T12:16:42;0.60;;;0.60;;
13343;SDS011;6741;48.964;9.406;2023-03-31T12:19:13;1.17;;;0.50;;
13343;SDS011;6741;48.964;9.406;2023-03-31T12:21:46;0.60;;;0.47;;
13343;SDS011;6741;48.964;9.406;2023-03-31T12:24:16;1.67;;;0.50;;
13343;SDS011;6741;48.964;9.406;2023-03-31T12:26:46;0.70;;;0.40;;
13343;SDS011;6741;48.964;9.406;2023-03-31T12:29:24;0.80;;;0.57;;
13343;SDS011;6741;48.964;9.406;2023-03-31T12:31:56;1.23;;;0.60;;
13343;SDS011;6741;48.964;9.406;2023-03-31T12:34:28;2.23;;;0.80;;
13343;SDS011;6741;48.964;9.406;2023-03-31T12:37:06;1.43;;;0.50;;
13343;SDS011;6741;48.964;9.406;2023-03-31T12:39:51;1.33;;;0.50;;
13343;SDS011;6741;48.964;9.406;2023-03-31T12:42:34;0.60;;;0.40;;
13343;SDS011;6741;48.964;9.406;2023-03-31T12:45:16;0.90;;;0.70;;
13343;SDS011;6741;48.964;9.406;2023-03-31T12:47:56;1.60;;;0.40;;
13343;SDS011;6741;48.964;9.406;2023-03-31T12:50:49;1.23;;;0.50;;
13343;SDS011;6741;48.964;9.406;2023-03-31T12:53:27;1.95;;;0.63;;
13343;SDS011;6741;48.964;9.406;2023-03-31T12:56:02;0.20;;;0.20;;
13343;SDS011;6741;48.964;9.406;2023-03-31T12:58:43;0.77;;;0.47;;
13343;SDS011;6741;48.964;9.406;2023-03-31T13:01:13;1.65;;;0.70;;
13343;SDS011;6741;48.964;9.406;2023-03-31T13:03:48;1.77;;;0.67;;
13343;SDS011;6741;48.964;9.406;2023-03-31T13:12:19;3.40;;;0.80;;
13343;SDS011;6741;48.964;9.406;2023-03-31T13:14:48;2.30;;;1.00;;
13343;SDS011;6741;48.964;9.406;2023-03-31T13:17:25;1.83;;;1.10;;
13343;SDS011;6741;48.964;9.406;2023-03-31T13:19:55;2.05;;;0.90;;
13343;SDS011;6741;48.964;9.406;2023-03-31T13:22:40;2.73;;;1.47;;
13343;SDS011;6741;48.964;9.406;2023-03-31T13:31:03;2.47;;;0.90;;
13343;SDS011;6741;48.964;9.406;2023-03-31T13:33:34;2.37;;;0.97;;
13343;SDS011;6741;48.964;9.406;2023-03-31T13:39:12;1.93;;;0.90;;
13343;SDS011;6741;48.964;9.406;2023-03-31T13:42:15;1.17;;;0.53;;
13343;SDS011;6741;48.964;9.406;2023-03-31T13:45:09;0.67;;;0.50;;
13343;SDS011;6741;48.964;9.406;2023-03-31T13:47:57;2.27;;;0.90;;
13343;SDS011;6741;48.964;9.406;2023-03-31T13:50:43;2.20;;;0.93;;
13343;SDS011;6741;48.964;9.406;2023-03-31T13:53:37;2.10;;;0.70;;
13343;SDS011;6741;48.964;9.406;2023-03-31T13:56:30;1.50;;;0.90;;
13343;SDS011;6741;48.964;9.406;2023-03-31T14:05:18;1.55;;;0.70;;
13343;SDS011;6741;48.964;9.406;2023-03-31T14:07:54;1.07;;;0.63;;
13343;SDS011;6741;48.964;9.406;2023-03-31T14:10:24;0.63;;;0.53;;
13343;SDS011;6741;48.964;9.406;2023-03-31T14:13:03;2.10;;;0.43;;
13343;SDS011;6741;48.964;9.406;2023-03-31T14:15:31;1.50;;;0.40;;
13343;SDS011;6741;48.964;9.406;2023-03-31T14:18:00;1.00;;;0.50;;
13343;SDS011;6741;48.964;9.406;2023-03-31T14:20:30;0.80;;;0.50;;
13343;SDS011;6741;48.964;9.406;2023-03-31T14:23:07;1.13;;;0.50;;
13343;SDS011;6741;48.964;9.406;2023-03-31T14:25:43;0.27;;;0.27;;
13343;SDS011;6741;48.964;9.406;2023-03-31T14:28:31;0.93;;;0.50;;
13343;SDS011;6741;48.964;9.406;2023-03-31T14:31:25;0.63;;;0.30;;
13343;SDS011;6741;48.964;9.406;2023-03-31T14:34:05;0.43;;;0.40;;
13343;SDS011;6741;48.964;9.406;2023-03-31T14:36:52;0.60;;;0.40;;
13343;SDS011;6741;48.964;9.406;2023-03-31T14:39:26;0.83;;;0.60;;
13343;SDS011;6741;48.964;9.406;2023-03-31T14:41:57;1.07;;;0.63;;
13343;SDS011;6741;48.964;9.406;2023-03-31T14:44:27;1.07;;;0.70;;
13343;SDS011;6741;48.964;9.406;2023-03-31T14:46:55;1.57;;;1.07;;
13343;SDS011;6741;48.964;9.406;2023-03-31T14:49:24;2.22;;;1.05;;
13343;SDS011;6741;48.964;9.406;2023-03-31T14:51:53;2.23;;;0.60;;
13343;SDS011;6741;48.964;9.406;2023-03-31T14:54:26;2.15;;;0.70;;
13343;SDS011;6741;48.964;9.406;2023-03-31T14:56:57;2.22;;;0.60;;
13343;SDS011;6741;48.964;9.406;2023-03-31T14:59:26;1.67;;;0.60;;
13343;SDS011;6741;48.964;9.406;2023-03-31T15:01:55;1.33;;;0.80;;
13343;SDS011;6741;48.964;9.406;2023-03-31T15:04:25;1.33;;;0.57;;
13343;SDS011;6741;48.964;9.406;2023-03-31T15:06:54;0.70;;;0.50;;
13343;SDS011;6741;48.964;9.406;2023-03-31T15:09:25;1.65;;;0.60;;
13343;SDS011;6741;48.964;9.406;2023-03-31T15:11:56;0.73;;;0.52;;
13343;SDS011;6741;48.964;9.406;2023-03-31T15:14:27;1.65;;;0.80;;
13343;SDS011;6741;48.964;9.406;2023-03-31T15:16:55;0.85;;;0.45;;
13343;SDS011;6741;48.964;9.406;2023-03-31T15:19:23;1.13;;;0.70;;
13343;SDS011;6741;48.964;9.406;2023-03-31T15:21:53;1.13;;;0.70;;
13343;SDS011;6741;48.964;9.406;2023-03-31T15:24:25;2.07;;;0.90;;
13343;SDS011;6741;48.964;9.406;2023-03-31T15:26:55;0.50;;;0.47;;
13343;SDS011;6741;48.964;9.406;2023-03-31T15:29:27;0.53;;;0.30;;
13343;SDS011;6741;48.964;9.406;2023-03-31T15:32:00;1.47;;;0.57;;
13343;SDS011;6741;48.964;9.406;2023-03-31T15:34:29;1.37;;;0.63;;
13343;SDS011;6741;48.964;9.406;2023-03-31T15:36:58;0.90;;;0.30;;
13343;SDS011;6741;48.964;9.406;2023-03-31T15:39:26;1.10;;;0.53;;
13343;SDS011;6741;48.964;9.406;2023-03-31T15:41:56;0.83;;;0.37;;
13343;SDS011;6741;48.964;9.406;2023-03-31T15:44:27;1.33;;;0.60;;
13343;SDS011;6741;48.964;9.406;2023-03-31T15:47:05;1.50;;;0.80;;
13343;SDS011;6741;48.964;9.406;2023-03-31T15:49:38;2.23;;;0.90;;
13343;SDS011;6741;48.964;9.406;2023-03-31T15:52:18;1.07;;;0.60;;
13343;SDS011;6741;48.964;9.406;2023-03-31T15:54:58;2.20;;;1.00;;
13343;SDS011;6741;48.964;9.406;2023-03-31T15:57:32;2.30;;;0.80;;
13343;SDS011;6741;48.964;9.406;2023-03-31T16:00:02;1.03;;;0.93;;
13343;SDS011;6741;48.964;9.406;2023-03-31T16:02:37;1.20;;;0.70;;
13343;SDS011;6741;48.964;9.406;2023-03-31T16:05:15;3.53;;;0.83;;
13343;SDS011;6741;48.964;9.406;2023-03-31T16:07:49;2.90;;;0.80;;
13343;SDS011;6741;48.964;9.406;2023-03-31T16:10:18;1.10;;;0.80;;